Eurocargo Palermo — IBAU — position and weather

sailwx.info

Track history (hours):
 
Tides and Currents Weather Stations Pressure Air Temp Water Temp Dewpoint Dewpoint Depression Visibility Wind Speed Wind Dir Waves Ship Positions

Eurocargo Palermo

Last reported at 2017-Nov-19 04:31 UTC. Time now 2017-Nov-19 04:43 UTC.
Position N 43°30' E 010°13'.

Length 200 m; draft 7.2 m.

Type: Cargo ship. MMSI: 247241800.

Date/timePositionNaut miles runAvg speedWind from/ knotsBaromVisibWave heightAir tempDewpointWater temp
2017-Nov-19 04:31N 43°30' E 010°13'4 7.3
2017-Nov-19 04:00N 43°28' E 010°08'510.4
2017-Nov-19 03:30N 43°30' E 010°01'917.4
2017-Nov-19 03:00N 43°33' E 009°50'714.0
2017-Nov-19 02:30N 43°39' E 009°45'917.0
2017-Nov-19 02:00N 43°47' E 009°41'816.8
2017-Nov-19 01:30N 43°54' E 009°35'817.0
2017-Nov-19 01:00N 44°01' E 009°28'816.4
2017-Nov-19 00:30N 44°06' E 009°20'816.5
2017-Nov-19 00:00N 44°10' E 009°10'816.6
2017-Nov-18 23:30N 44°14' E 008°59'816.7
2017-Nov-18 23:00N 44°17' E 008°49'816.7
2017-Nov-18 22:30N 44°19' E 008°37'510.3
2017-Nov-18 22:00N 44°19' E 008°30'0 0.0
2017-Nov-18 21:30N 44°19' E 008°30'0 0.0
2017-Nov-18 21:00N 44°19' E 008°30'0 0.0
2017-Nov-18 20:30N 44°19' E 008°30'0 0.0
2017-Nov-18 20:00N 44°19' E 008°30'0 0.0
2017-Nov-18 19:30N 44°19' E 008°30'0 0.0
2017-Nov-18 19:00N 44°19' E 008°30'0 0.0
2017-Nov-18 18:30N 44°19' E 008°30'0 0.0
2017-Nov-18 18:00N 44°19' E 008°30'0 0.0
2017-Nov-18 17:30N 44°19' E 008°30'0 0.0
2017-Nov-18 17:00N 44°19' E 008°30'0 0.0
2017-Nov-18 16:30N 44°19' E 008°30'0 0.0
2017-Nov-18 16:00N 44°19' E 008°30'0 0.0
2017-Nov-18 15:30N 44°19' E 008°30'0 0.0
2017-Nov-18 14:57N 44°19' E 008°30'0 0.0
2017-Nov-18 14:30N 44°19' E 008°30'0 0.0
2017-Nov-18 14:00N 44°19' E 008°30'0 0.0
2017-Nov-18 13:30N 44°19' E 008°30'0 0.0
2017-Nov-18 13:00N 44°19' E 008°30'0 0.0
2017-Nov-18 12:30N 44°19' E 008°30'0 0.0
2017-Nov-18 12:00N 44°19' E 008°30'0 0.8
2017-Nov-18 11:30N 44°19' E 008°30'3 5.1
2017-Nov-18 11:00N 44°17' E 008°32'1 1.2
2017-Nov-18 10:30N 44°16' E 008°32'0 0.7
2017-Nov-18 10:00N 44°16' E 008°32'4 8.5
2017-Nov-18 09:30N 44°12' E 008°30'816.0
2017-Nov-18 09:00N 44°05' E 008°24'5216.5
2017-Nov-18 05:50N 43°31' E 007°29'516.6
2017-Nov-18 05:30N 43°28' E 007°23'816.5
2017-Nov-18 05:00N 43°23' E 007°14'816.4
2017-Nov-18 04:30N 43°18' E 007°05'24811.0
2017-Nov-17 05:52N 41°18' E 002°11'6 8.5
2017-Nov-17 05:12N 41°13' E 002°08'317.0
2017-Nov-17 05:00N 41°10' E 002°05'917.6
2017-Nov-17 04:30N 41°04' E 001°58'917.4
2017-Nov-17 04:00N 40°57' E 001°51'263 6.1
2017-Nov-15 08:35N 43°07' E 006°59'219.6
2017-Nov-15 08:28N 43°09' E 006°60'919.1
2017-Nov-15 08:00N 43°17' E 007°05'1119.6
2017-Nov-15 07:28N 43°24' E 007°17'920.0
2017-Nov-15 07:00N 43°29' E 007°27'1119.9
2017-Nov-15 06:27N 43°36' E 007°39'3319.8
2017-Nov-15 04:48N 43°56' E 008°15'620.1
2017-Nov-15 04:30N 44°01' E 008°20'1020.0
2017-Nov-15 04:01N 44°09' E 008°28'918.4
2017-Nov-15 03:31N 44°18' E 008°31'1 2.5
2017-Nov-15 02:57N 44°19' E 008°30'0 0.0
2017-Nov-15 02:27N 44°19' E 008°30'0 0.0
2017-Nov-15 01:57N 44°19' E 008°30'0 0.0
2017-Nov-15 01:30N 44°19' E 008°30'0 0.0
2017-Nov-15 01:00N 44°19' E 008°30'0 0.0
2017-Nov-15 00:30N 44°19' E 008°30'1 1.4
2017-Nov-15 00:00N 44°19' E 008°31'4 8.2
2017-Nov-14 23:31N 44°16' E 008°36'816.9
2017-Nov-14 23:01N 44°11' E 008°45'917.1
2017-Nov-14 22:31N 44°06' E 008°54'917.4
2017-Nov-14 22:00N 44°01' E 009°04'917.7
2017-Nov-14 21:31N 43°56' E 009°14'917.6
2017-Nov-14 21:01N 43°51' E 009°24'917.8
2017-Nov-14 20:31N 43°45' E 009°34'917.9
2017-Nov-14 20:01N 43°40' E 009°44'917.9
2017-Nov-14 19:30N 43°35' E 009°54'918.1
2017-Nov-14 19:01N 43°30' E 010°05'815.9
2017-Nov-14 18:30N 43°32' E 010°16'3 6.4
2017-Nov-14 18:00N 43°34' E 010°19'1 1.0
2017-Nov-14 17:28N 43°35' E 010°19'0 0.0
2017-Nov-14 16:58N 43°35' E 010°19'0 0.0
2017-Nov-14 16:28N 43°35' E 010°19'0 0.0
2017-Nov-14 15:58N 43°35' E 010°19'0 0.0
2017-Nov-14 15:28N 43°35' E 010°19'0 0.0
2017-Nov-14 14:55N 43°35' E 010°19'0 0.0
2017-Nov-14 14:28N 43°35' E 010°19'0 0.0
2017-Nov-14 13:58N 43°35' E 010°19'0 0.0
2017-Nov-14 13:25N 43°35' E 010°19'0 0.0
2017-Nov-14 12:58N 43°35' E 010°19'0 0.0
2017-Nov-14 12:28N 43°35' E 010°19'0 0.0
2017-Nov-14 11:58N 43°35' E 010°19'0 0.0
2017-Nov-14 11:25N 43°35' E 010°19'0 0.0
2017-Nov-14 10:58N 43°35' E 010°19'0 0.0
2017-Nov-14 10:22N 43°35' E 010°19'0 0.0
2017-Nov-14 09:58N 43°35' E 010°19'1 1.9
2017-Nov-14 09:30N 43°34' E 010°18'3 5.3
2017-Nov-14 09:00N 43°32' E 010°16'1 2.4
2017-Nov-14 08:28N 43°31' E 010°17'0 0.2
2017-Nov-14 07:58N 43°31' E 010°17'0 0.1
2017-Nov-14 07:28N 43°30' E 010°17'0 0.0
2017-Nov-14 06:58N 43°31' E 010°17'0 0.1
2017-Nov-14 06:28N 43°31' E 010°17'0 0.1
2017-Nov-14 05:58N 43°30' E 010°17'0 0.0
2017-Nov-14 05:28N 43°30' E 010°17'0 0.0
2017-Nov-14 04:55N 43°30' E 010°17'0 0.0
2017-Nov-14 04:28N 43°30' E 010°17'0 0.0
2017-Nov-14 03:58N 43°30' E 010°17'0 0.0
2017-Nov-14 03:28N 43°30' E 010°17'0 0.0
2017-Nov-14 02:58N 43°31' E 010°17'0 0.0
2017-Nov-14 02:28N 43°31' E 010°17'0 0.1
2017-Nov-14 01:58N 43°31' E 010°17'0 0.1
2017-Nov-14 01:28N 43°31' E 010°17'0 0.0
2017-Nov-14 00:58N 43°31' E 010°17'0 0.2
2017-Nov-14 00:28N 43°31' E 010°17'0 0.2
2017-Nov-13 23:58N 43°31' E 010°17'0 0.1
2017-Nov-13 23:28N 43°31' E 010°17'1 2.2
2017-Nov-13 23:00N 43°32' E 010°17'3 6.4
2017-Nov-13 22:30N 43°34' E 010°19'0 0.8
2017-Nov-13 21:58N 43°35' E 010°19'90 4.5
2017-Nov-13 01:55N 44°19' E 008°30'0 0.0
2017-Nov-13 01:25N 44°19' E 008°30'0 0.0
2017-Nov-13 00:55N 44°19' E 008°30'0 0.5
2017-Nov-13 00:30N 44°19' E 008°30'2 3.9
2017-Nov-13 00:00N 44°17' E 008°31'816.4
2017-Nov-12 23:30N 44°09' E 008°28'1119.0
2017-Nov-12 22:56N 44°01' E 008°19'3919.4
2017-Nov-12 20:54N 43°35' E 007°37'920.0
2017-Nov-12 20:29N 43°30' E 007°28'1020.0
2017-Nov-12 20:00N 43°24' E 007°17'1020.2
2017-Nov-12 19:30N 43°18' E 007°06'26318.6
2017-Nov-12 05:20N 41°01' E 002°03'719.7
2017-Nov-12 04:59N 40°56' E 001°56'265 6.3
2017-Nov-10 11:01N 43°15' E 007°01'018.3
2017-Nov-10 11:00N 43°15' E 007°01'917.8
2017-Nov-10 10:30N 43°21' E 007°11'917.9
2017-Nov-10 10:00N 43°26' E 007°20'5019.2
2017-Nov-10 07:24N 43°57' E 008°16'819.6
2017-Nov-10 07:00N 44°03' E 008°22'919.4
2017-Nov-10 06:30N 44°11' E 008°29'816.3
2017-Nov-10 06:00N 44°19' E 008°30'1 1.0
2017-Nov-10 05:29N 44°19' E 008°30'0 0.0
2017-Nov-10 04:59N 44°19' E 008°30'0 0.0
2017-Nov-10 04:29N 44°19' E 008°30'0 0.0
2017-Nov-10 03:59N 44°19' E 008°30'0 0.0
2017-Nov-10 03:29N 44°19' E 008°30'0 0.0
2017-Nov-10 02:59N 44°19' E 008°30'0 0.0
2017-Nov-10 02:29N 44°19' E 008°30'0 0.0
2017-Nov-10 01:59N 44°19' E 008°30'0 0.0
2017-Nov-10 01:29N 44°19' E 008°30'0 0.0
2017-Nov-10 00:59N 44°19' E 008°30'0 0.8
2017-Nov-10 00:30N 44°19' E 008°30'510.4
2017-Nov-10 00:00N 44°16' E 008°36'918.1
2017-Nov-09 23:30N 44°11' E 008°46'918.2
2017-Nov-09 23:00N 44°05' E 008°57'918.1
2017-Nov-09 22:30N 44°00' E 009°07'918.2
2017-Nov-09 22:00N 43°55' E 009°17'917.9
2017-Nov-09 21:30N 43°49' E 009°27'918.5
2017-Nov-09 21:00N 43°44' E 009°37'918.1
2017-Nov-09 20:30N 43°38' E 009°47'917.9
2017-Nov-09 20:00N 43°33' E 009°57'1017.2
2017-Nov-09 19:27N 43°31' E 010°10'611.9
2017-Nov-09 18:58N 43°33' E 010°18'2 3.9
2017-Nov-09 18:30N 43°35' E 010°19'0 0.0
2017-Nov-09 18:00N 43°35' E 010°19'0 0.0
2017-Nov-09 17:30N 43°35' E 010°19'0 0.0
2017-Nov-09 17:00N 43°35' E 010°19'0 0.0
2017-Nov-09 16:30N 43°35' E 010°19'0 0.0
2017-Nov-09 16:01N 43°35' E 010°19'0 0.0
2017-Nov-09 15:30N 43°35' E 010°19'0 0.0
2017-Nov-09 15:00N 43°35' E 010°19'0 0.0
2017-Nov-09 14:30N 43°35' E 010°19'0 0.0
2017-Nov-09 14:00N 43°35' E 010°19'0 0.0
2017-Nov-09 13:31N 43°35' E 010°19'0 0.0
2017-Nov-09 13:00N 43°35' E 010°19'0 0.0
2017-Nov-09 12:30N 43°35' E 010°19'0 0.0
2017-Nov-09 12:00N 43°35' E 010°19'0 0.0
2017-Nov-09 11:31N 43°35' E 010°19'0 0.0
2017-Nov-09 11:01N 43°35' E 010°19'1 1.2
2017-Nov-09 10:31N 43°34' E 010°18'2 4.9
2017-Nov-09 10:00N 43°32' E 010°17'611.8
2017-Nov-09 09:31N 43°30' E 010°09'1019.5
2017-Nov-09 09:01N 43°31' E 009°56'1019.9
2017-Nov-09 08:31N 43°29' E 009°42'1020.3
2017-Nov-09 08:01N 43°27' E 009°28'1020.5
2017-Nov-09 07:31N 43°25' E 009°14'1020.7
2017-Nov-09 07:00N 43°23' E 009°00'  
Track history (hours):
 
Tides and Currents Weather Stations Pressure Air Temp Water Temp Dewpoint Dewpoint Depression Visibility Wind Speed Wind Dir Waves Ship Positions

Eurocargo Palermo

Last reported at 2017-Nov-19 04:31 UTC. Time now 2017-Nov-19 04:43 UTC.
Position N 43°30' E 010°13'.

Length 200 m; draft 7.2 m.

Type: Cargo ship. MMSI: 247241800.

Date/timePositionNaut miles runAvg speedWind from/ knotsBaromVisibWave heightAir tempDewpointWater temp
2017-Nov-19 04:31N 43°30' E 010°13'4 7.3
2017-Nov-19 04:00N 43°28' E 010°08'510.4
2017-Nov-19 03:30N 43°30' E 010°01'917.4
2017-Nov-19 03:00N 43°33' E 009°50'714.0
2017-Nov-19 02:30N 43°39' E 009°45'917.0
2017-Nov-19 02:00N 43°47' E 009°41'816.8
2017-Nov-19 01:30N 43°54' E 009°35'817.0
2017-Nov-19 01:00N 44°01' E 009°28'816.4
2017-Nov-19 00:30N 44°06' E 009°20'816.5
2017-Nov-19 00:00N 44°10' E 009°10'816.6
2017-Nov-18 23:30N 44°14' E 008°59'816.7
2017-Nov-18 23:00N 44°17' E 008°49'816.7
2017-Nov-18 22:30N 44°19' E 008°37'510.3
2017-Nov-18 22:00N 44°19' E 008°30'0 0.0
2017-Nov-18 21:30N 44°19' E 008°30'0 0.0
2017-Nov-18 21:00N 44°19' E 008°30'0 0.0
2017-Nov-18 20:30N 44°19' E 008°30'0 0.0
2017-Nov-18 20:00N 44°19' E 008°30'0 0.0
2017-Nov-18 19:30N 44°19' E 008°30'0 0.0
2017-Nov-18 19:00N 44°19' E 008°30'0 0.0
2017-Nov-18 18:30N 44°19' E 008°30'0 0.0
2017-Nov-18 18:00N 44°19' E 008°30'0 0.0
2017-Nov-18 17:30N 44°19' E 008°30'0 0.0
2017-Nov-18 17:00N 44°19' E 008°30'0 0.0
2017-Nov-18 16:30N 44°19' E 008°30'0 0.0
2017-Nov-18 16:00N 44°19' E 008°30'0 0.0
2017-Nov-18 15:30N 44°19' E 008°30'0 0.0
2017-Nov-18 14:57N 44°19' E 008°30'0 0.0
2017-Nov-18 14:30N 44°19' E 008°30'0 0.0
2017-Nov-18 14:00N 44°19' E 008°30'0 0.0
2017-Nov-18 13:30N 44°19' E 008°30'0 0.0
2017-Nov-18 13:00N 44°19' E 008°30'0 0.0
2017-Nov-18 12:30N 44°19' E 008°30'0 0.0
2017-Nov-18 12:00N 44°19' E 008°30'0 0.8
2017-Nov-18 11:30N 44°19' E 008°30'3 5.1
2017-Nov-18 11:00N 44°17' E 008°32'1 1.2
2017-Nov-18 10:30N 44°16' E 008°32'0 0.7
2017-Nov-18 10:00N 44°16' E 008°32'4 8.5
2017-Nov-18 09:30N 44°12' E 008°30'816.0
2017-Nov-18 09:00N 44°05' E 008°24'5216.5
2017-Nov-18 05:50N 43°31' E 007°29'516.6
2017-Nov-18 05:30N 43°28' E 007°23'816.5
2017-Nov-18 05:00N 43°23' E 007°14'816.4
2017-Nov-18 04:30N 43°18' E 007°05'24811.0
2017-Nov-17 05:52N 41°18' E 002°11'6 8.5
2017-Nov-17 05:12N 41°13' E 002°08'317.0
2017-Nov-17 05:00N 41°10' E 002°05'917.6
2017-Nov-17 04:30N 41°04' E 001°58'917.4
2017-Nov-17 04:00N 40°57' E 001°51'263 6.1
2017-Nov-15 08:35N 43°07' E 006°59'219.6
2017-Nov-15 08:28N 43°09' E 006°60'919.1
2017-Nov-15 08:00N 43°17' E 007°05'1119.6
2017-Nov-15 07:28N 43°24' E 007°17'920.0
2017-Nov-15 07:00N 43°29' E 007°27'1119.9
2017-Nov-15 06:27N 43°36' E 007°39'3319.8
2017-Nov-15 04:48N 43°56' E 008°15'620.1
2017-Nov-15 04:30N 44°01' E 008°20'1020.0
2017-Nov-15 04:01N 44°09' E 008°28'918.4
2017-Nov-15 03:31N 44°18' E 008°31'1 2.5
2017-Nov-15 02:57N 44°19' E 008°30'0 0.0
2017-Nov-15 02:27N 44°19' E 008°30'0 0.0
2017-Nov-15 01:57N 44°19' E 008°30'0 0.0
2017-Nov-15 01:30N 44°19' E 008°30'0 0.0
2017-Nov-15 01:00N 44°19' E 008°30'0 0.0
2017-Nov-15 00:30N 44°19' E 008°30'1 1.4
2017-Nov-15 00:00N 44°19' E 008°31'4 8.2
2017-Nov-14 23:31N 44°16' E 008°36'816.9
2017-Nov-14 23:01N 44°11' E 008°45'917.1
2017-Nov-14 22:31N 44°06' E 008°54'917.4
2017-Nov-14 22:00N 44°01' E 009°04'917.7
2017-Nov-14 21:31N 43°56' E 009°14'917.6
2017-Nov-14 21:01N 43°51' E 009°24'917.8
2017-Nov-14 20:31N 43°45' E 009°34'917.9
2017-Nov-14 20:01N 43°40' E 009°44'917.9
2017-Nov-14 19:30N 43°35' E 009°54'918.1
2017-Nov-14 19:01N 43°30' E 010°05'815.9
2017-Nov-14 18:30N 43°32' E 010°16'3 6.4
2017-Nov-14 18:00N 43°34' E 010°19'1 1.0
2017-Nov-14 17:28N 43°35' E 010°19'0 0.0
2017-Nov-14 16:58N 43°35' E 010°19'0 0.0
2017-Nov-14 16:28N 43°35' E 010°19'0 0.0
2017-Nov-14 15:58N 43°35' E 010°19'0 0.0
2017-Nov-14 15:28N 43°35' E 010°19'0 0.0
2017-Nov-14 14:55N 43°35' E 010°19'0 0.0
2017-Nov-14 14:28N 43°35' E 010°19'0 0.0
2017-Nov-14 13:58N 43°35' E 010°19'0 0.0
2017-Nov-14 13:25N 43°35' E 010°19'0 0.0
2017-Nov-14 12:58N 43°35' E 010°19'0 0.0
2017-Nov-14 12:28N 43°35' E 010°19'0 0.0
2017-Nov-14 11:58N 43°35' E 010°19'0 0.0
2017-Nov-14 11:25N 43°35' E 010°19'0 0.0
2017-Nov-14 10:58N 43°35' E 010°19'0 0.0
2017-Nov-14 10:22N 43°35' E 010°19'0 0.0
2017-Nov-14 09:58N 43°35' E 010°19'1 1.9
2017-Nov-14 09:30N 43°34' E 010°18'3 5.3
2017-Nov-14 09:00N 43°32' E 010°16'1 2.4
2017-Nov-14 08:28N 43°31' E 010°17'0 0.2
2017-Nov-14 07:58N 43°31' E 010°17'0 0.1
2017-Nov-14 07:28N 43°30' E 010°17'0 0.0
2017-Nov-14 06:58N 43°31' E 010°17'0 0.1
2017-Nov-14 06:28N 43°31' E 010°17'0 0.1
2017-Nov-14 05:58N 43°30' E 010°17'0 0.0
2017-Nov-14 05:28N 43°30' E 010°17'0 0.0
2017-Nov-14 04:55N 43°30' E 010°17'0 0.0
2017-Nov-14 04:28N 43°30' E 010°17'0 0.0
2017-Nov-14 03:58N 43°30' E 010°17'0 0.0
2017-Nov-14 03:28N 43°30' E 010°17'0 0.0
2017-Nov-14 02:58N 43°31' E 010°17'0 0.0
2017-Nov-14 02:28N 43°31' E 010°17'0 0.1
2017-Nov-14 01:58N 43°31' E 010°17'0 0.1
2017-Nov-14 01:28N 43°31' E 010°17'0 0.0
2017-Nov-14 00:58N 43°31' E 010°17'0 0.2
2017-Nov-14 00:28N 43°31' E 010°17'0 0.2
2017-Nov-13 23:58N 43°31' E 010°17'0 0.1
2017-Nov-13 23:28N 43°31' E 010°17'1 2.2
2017-Nov-13 23:00N 43°32' E 010°17'3 6.4
2017-Nov-13 22:30N 43°34' E 010°19'0 0.8
2017-Nov-13 21:58N 43°35' E 010°19'90 4.5
2017-Nov-13 01:55N 44°19' E 008°30'0 0.0
2017-Nov-13 01:25N 44°19' E 008°30'0 0.0
2017-Nov-13 00:55N 44°19' E 008°30'0 0.5
2017-Nov-13 00:30N 44°19' E 008°30'2 3.9
2017-Nov-13 00:00N 44°17' E 008°31'816.4
2017-Nov-12 23:30N 44°09' E 008°28'1119.0
2017-Nov-12 22:56N 44°01' E 008°19'3919.4
2017-Nov-12 20:54N 43°35' E 007°37'920.0
2017-Nov-12 20:29N 43°30' E 007°28'1020.0
2017-Nov-12 20:00N 43°24' E 007°17'1020.2
2017-Nov-12 19:30N 43°18' E 007°06'26318.6
2017-Nov-12 05:20N 41°01' E 002°03'719.7
2017-Nov-12 04:59N 40°56' E 001°56'265 6.3
2017-Nov-10 11:01N 43°15' E 007°01'018.3
2017-Nov-10 11:00N 43°15' E 007°01'917.8
2017-Nov-10 10:30N 43°21' E 007°11'917.9
2017-Nov-10 10:00N 43°26' E 007°20'5019.2
2017-Nov-10 07:24N 43°57' E 008°16'819.6
2017-Nov-10 07:00N 44°03' E 008°22'919.4
2017-Nov-10 06:30N 44°11' E 008°29'816.3
2017-Nov-10 06:00N 44°19' E 008°30'1 1.0
2017-Nov-10 05:29N 44°19' E 008°30'0 0.0
2017-Nov-10 04:59N 44°19' E 008°30'0 0.0
2017-Nov-10 04:29N 44°19' E 008°30'0 0.0
2017-Nov-10 03:59N 44°19' E 008°30'0 0.0
2017-Nov-10 03:29N 44°19' E 008°30'0 0.0
2017-Nov-10 02:59N 44°19' E 008°30'0 0.0
2017-Nov-10 02:29N 44°19' E 008°30'0 0.0
2017-Nov-10 01:59N 44°19' E 008°30'0 0.0
2017-Nov-10 01:29N 44°19' E 008°30'0 0.0
2017-Nov-10 00:59N 44°19' E 008°30'0 0.8
2017-Nov-10 00:30N 44°19' E 008°30'510.4
2017-Nov-10 00:00N 44°16' E 008°36'918.1
2017-Nov-09 23:30N 44°11' E 008°46'918.2
2017-Nov-09 23:00N 44°05' E 008°57'918.1
2017-Nov-09 22:30N 44°00' E 009°07'918.2
2017-Nov-09 22:00N 43°55' E 009°17'917.9
2017-Nov-09 21:30N 43°49' E 009°27'918.5
2017-Nov-09 21:00N 43°44' E 009°37'918.1
2017-Nov-09 20:30N 43°38' E 009°47'917.9
2017-Nov-09 20:00N 43°33' E 009°57'1017.2
2017-Nov-09 19:27N 43°31' E 010°10'611.9
2017-Nov-09 18:58N 43°33' E 010°18'2 3.9
2017-Nov-09 18:30N 43°35' E 010°19'0 0.0
2017-Nov-09 18:00N 43°35' E 010°19'0 0.0
2017-Nov-09 17:30N 43°35' E 010°19'0 0.0
2017-Nov-09 17:00N 43°35' E 010°19'0 0.0
2017-Nov-09 16:30N 43°35' E 010°19'0 0.0
2017-Nov-09 16:01N 43°35' E 010°19'0 0.0
2017-Nov-09 15:30N 43°35' E 010°19'0 0.0
2017-Nov-09 15:00N 43°35' E 010°19'0 0.0
2017-Nov-09 14:30N 43°35' E 010°19'0 0.0
2017-Nov-09 14:00N 43°35' E 010°19'0 0.0
2017-Nov-09 13:31N 43°35' E 010°19'0 0.0
2017-Nov-09 13:00N 43°35' E 010°19'0 0.0
2017-Nov-09 12:30N 43°35' E 010°19'0 0.0
2017-Nov-09 12:00N 43°35' E 010°19'0 0.0
2017-Nov-09 11:31N 43°35' E 010°19'0 0.0
2017-Nov-09 11:01N 43°35' E 010°19'1 1.2
2017-Nov-09 10:31N 43°34' E 010°18'2 4.9
2017-Nov-09 10:00N 43°32' E 010°17'611.8
2017-Nov-09 09:31N 43°30' E 010°09'1019.5
2017-Nov-09 09:01N 43°31' E 009°56'1019.9
2017-Nov-09 08:31N 43°29' E 009°42'1020.3
2017-Nov-09 08:01N 43°27' E 009°28'1020.5
2017-Nov-09 07:31N 43°25' E 009°14'1020.7
2017-Nov-09 07:00N 43°23' E 009°00'  

Dump ship's entire track history